Time;durP1;ratioP1;P1;durP2;ratioP2;P2;SDS_P1;SDS_P2;PMS_P1;PMS_P2;Temp;Humidity;BMP_temperature;BMP_pressure;BME280_temperature;BME280_humidity;BME280_pressure;Samples;Min_cycle;Max_cycle;Signal;HPM_P1;HPM_P2
2022/01/21 00:01:38;;;;;;;;;;;-3275.40;94.80;;;;;;5072535;28;19916;-88
2022/01/21 00:04:05;;;;;;;;;;;-3275.40;95.00;;;;;;5072534;28;19912;-88
2022/01/21 00:06:31;;;;;;;;;;;-3275.50;95.20;;;;;;5072487;28;20421;-88
2022/01/21 00:08:57;;;;;;;;;;;-3275.70;95.40;;;;;;5072378;28;20000;-88
2022/01/21 00:11:23;;;;;;;;;;;-3275.90;95.40;;;;;;5072725;28;19909;-88
2022/01/21 00:13:49;;;;;;;;;;;-3276.00;95.50;;;;;;5072667;28;19909;-88
2022/01/21 00:16:21;;;;;;;;;;;-3276.00;95.30;;;;;;5072337;28;19917;-88
2022/01/21 00:18:53;;;;;;;;;;;-3276.00;95.10;;;;;;5073050;28;19908;-88
2022/01/21 00:32:16;;;;;;;;;;;-3275.40;93.90;;;;;;5076012;28;20381;-87
2022/01/21 00:34:41;;;;;;;;;;;-3275.60;94.40;;;;;;5075583;28;19908;-88
2022/01/21 00:37:07;;;;;;;;;;;-3275.70;94.70;;;;;;5075554;28;19908;-88
2022/01/21 00:39:34;;;;;;;;;;;-3275.80;94.80;;;;;;5075805;28;19914;-88
2022/01/21 00:44:25;;;;;;;;;;;-3275.80;94.90;;;;;;5075510;28;19915;-88
2022/01/21 00:46:51;;;;;;;;;;;-3275.80;94.70;;;;;;5075513;28;20164;-88
2022/01/21 00:49:17;;;;;;;;;;;-3275.80;94.80;;;;;;5075431;28;20359;-88
2022/01/21 00:51:42;;;;;;;;;;;-3275.90;94.90;;;;;;5075377;28;19909;-88
2022/01/21 00:54:08;;;;;;;;;;;-3275.90;95.00;;;;;;5075044;28;19971;-88
2022/01/21 00:56:34;;;;;;;;;;;-3275.90;95.00;;;;;;5075175;28;20019;-88
2022/01/21 00:59:00;;;;;;;;;;;-3276.00;95.00;;;;;;5075222;28;20316;-88
2022/01/21 01:01:25;;;;;;;;;;;-3276.10;95.00;;;;;;5075135;28;19909;-88
2022/01/21 01:03:51;;;;;;;;;;;-3276.10;94.80;;;;;;5075135;28;19909;-88
2022/01/21 01:06:16;;;;;;;;;;;-3276.00;94.60;;;;;;5075064;28;19953;-88
2022/01/21 01:08:42;;;;;;;;;;;-3276.00;94.60;;;;;;5074972;28;20434;-88
2022/01/21 01:21:46;;;;;;;;;;;-3276.00;94.50;;;;;;5074744;28;19955;-89
2022/01/21 01:29:24;;;;;;;;;;;-3276.10;94.60;;;;;;5074717;28;19958;-88
2022/01/21 01:31:50;;;;;;;;;;;-3276.10;94.60;;;;;;5073287;28;19969;-88
2022/01/21 01:34:16;;;;;;;;;;;-3276.20;94.70;;;;;;5074507;28;19955;-88
2022/01/21 01:36:46;;;;;;;;;;;-3276.30;94.70;;;;;;5074448;28;19921;-88
2022/01/21 01:41:44;;;;;;;;;;;-3276.10;93.90;;;;;;5074665;28;19908;-88
2022/01/21 01:49:38;;;;;;;;;;;-3276.00;94.00;;;;;;5074215;28;19919;-88
2022/01/21 01:52:08;;;;;;;;;;;-3276.00;93.80;;;;;;5074221;28;19909;-88
2022/01/21 01:54:35;;;;;;;;;;;-3275.90;94.00;;;;;;5073987;28;19974;-88
2022/01/21 01:57:00;;;;;;;;;;;-3275.90;94.10;;;;;;5073983;28;20370;-89
2022/01/21 01:59:26;;;;;;;;;;;-3275.90;94.10;;;;;;5073988;28;19913;-88
2022/01/21 02:01:52;;;;;;;;;;;-3275.80;94.00;;;;;;5074264;28;20461;-88
2022/01/21 02:04:17;;;;;;;;;;;-3275.80;94.00;;;;;;5073965;28;19908;-88
2022/01/21 02:06:43;;;;;;;;;;;-3275.80;94.20;;;;;;5073842;28;19908;-88
2022/01/21 02:09:08;;;;;;;;;;;-3275.90;94.30;;;;;;5073738;28;19997;-88
2022/01/21 02:11:35;;;;;;;;;;;-3275.90;94.30;;;;;;5073789;28;19955;-88
2022/01/21 02:14:02;;;;;;;;;;;-3276.00;94.30;;;;;;5073730;28;20359;-88
2022/01/21 02:21:54;;;;;;;;;;;-3275.80;93.80;;;;;;5073918;28;20413;-88
2022/01/21 02:24:23;;;;;;;;;;;-3275.80;94.00;;;;;;5073528;28;19908;-88
2022/01/21 02:26:51;;;;;;;;;;;-3275.70;94.00;;;;;;5073453;28;19912;-88
2022/01/21 02:29:26;;;;;;;;;;;-3275.70;94.00;;;;;;5073394;28;19909;-88
2022/01/21 02:31:52;;;;;;;;;;;-3275.70;94.00;;;;;;5073449;28;19958;-88
2022/01/21 02:34:18;;;;;;;;;;;-3275.70;94.00;;;;;;5073481;28;20522;-88
2022/01/21 02:36:44;;;;;;;;;;;-3275.60;93.90;;;;;;5073418;28;20007;-88
2022/01/21 02:39:09;;;;;;;;;;;-3275.60;93.90;;;;;;5073375;28;20293;-88
2022/01/21 02:41:35;;;;;;;;;;;-3275.50;93.80;;;;;;5072814;28;19913;-88
2022/01/21 02:44:00;;;;;;;;;;;-3275.60;94.00;;;;;;5073326;28;19916;-88
2022/01/21 02:46:27;;;;;;;;;;;-3275.70;94.00;;;;;;5073312;28;20328;-88
2022/01/21 02:48:53;;;;;;;;;;;-3275.70;94.00;;;;;;5073541;28;19970;-88
2022/01/21 02:51:18;;;;;;;;;;;-3275.90;94.00;;;;;;5073232;28;19908;-88
2022/01/21 02:56:10;;;;;;;;;;;-3275.80;93.50;;;;;;5073418;28;19912;-88
2022/01/21 02:58:37;;;;;;;;;;;-3275.80;93.20;;;;;;5073094;28;19908;-88
2022/01/21 03:01:03;;;;;;;;;;;-3275.80;93.00;;;;;;5073103;28;20337;-88
2022/01/21 03:03:29;;;;;;;;;;;-3275.60;92.70;;;;;;5073076;28;20381;-88
2022/01/21 03:05:54;;;;;;;;;;;-3275.40;92.30;;;;;;5073066;28;19916;-88
2022/01/21 03:08:20;;;;;;;;;;;-3275.40;92.40;;;;;;5072974;28;20325;-88
2022/01/21 03:10:45;;;;;;;;;;;-3275.40;92.50;;;;;;5073313;28;20300;-88
2022/01/21 03:13:11;;;;;;;;;;;-3275.30;93.10;;;;;;5073025;28;20342;-88
2022/01/21 03:15:37;;;;;;;;;;;-3275.30;93.20;;;;;;5072891;28;19919;-88
2022/01/21 03:18:02;;;;;;;;;;;-3275.40;93.30;;;;;;5072961;28;20354;-88
2022/01/21 03:20:28;;;;;;;;;;;-3275.40;93.40;;;;;;5072943;28;19931;-88
2022/01/21 03:22:53;;;;;;;;;;;-3275.40;93.50;;;;;;5073473;28;20420;-88
2022/01/21 03:25:19;;;;;;;;;;;-3275.40;93.50;;;;;;5072899;28;20282;-88
2022/01/21 03:27:44;;;;;;;;;;;-3275.40;93.60;;;;;;5072752;28;19999;-88
2022/01/21 03:30:10;;;;;;;;;;;-3275.50;93.70;;;;;;5072866;28;20281;-88
2022/01/21 03:32:36;;;;;;;;;;;-3275.50;93.80;;;;;;5072804;28;19915;-88
2022/01/21 03:35:02;;;;;;;;;;;-3275.70;93.90;;;;;;5072717;28;19908;-88
2022/01/21 03:37:28;;;;;;;;;;;-3275.80;93.90;;;;;;5072787;28;20000;-88
2022/01/21 03:39:53;;;;;;;;;;;-3275.90;93.70;;;;;;5072737;28;19952;-88
2022/01/21 03:42:19;;;;;;;;;;;-3275.90;93.30;;;;;;5072701;28;19916;-88
2022/01/21 03:44:44;;;;;;;;;;;-3276.00;93.20;;;;;;5072673;28;20431;-88
2022/01/21 03:47:10;;;;;;;;;;;-3276.10;93.00;;;;;;5072687;28;19909;-88
2022/01/21 03:49:39;;;;;;;;;;;-3276.20;93.20;;;;;;5072644;28;19916;-88
2022/01/21 03:52:05;;;;;;;;;;;-3276.30;93.30;;;;;;5072605;28;20433;-88
2022/01/21 03:54:31;;;;;;;;;;;-3276.20;92.80;;;;;;5074206;28;20023;-88
2022/01/21 03:56:56;;;;;;;;;;;-3276.00;92.00;;;;;;5076299;28;20003;-88
2022/01/21 03:59:22;;;;;;;;;;;-3275.60;91.60;;;;;;5076356;28;20046;-88
2022/01/21 04:01:47;;;;;;;;;;;-3275.50;92.10;;;;;;5076251;28;19953;-88
2022/01/21 04:04:13;;;;;;;;;;;-3275.40;92.60;;;;;;5076149;28;19940;-88
2022/01/21 04:06:38;;;;;;;;;;;-3275.40;93.10;;;;;;5076165;28;19908;-88
2022/01/21 04:09:04;;;;;;;;;;;-3275.50;93.30;;;;;;5076057;28;19908;-88
2022/01/21 04:11:29;;;;;;;;;;;-3275.50;93.40;;;;;;5076078;28;19908;-88
2022/01/21 04:13:55;;;;;;;;;;;-3275.60;93.50;;;;;;5076067;28;20331;-88
2022/01/21 04:16:21;;;;;;;;;;;-3275.60;93.20;;;;;;5075937;28;19912;-88
2022/01/21 04:18:47;;;;;;;;;;;-3275.60;93.10;;;;;;5075961;28;19959;-88
2022/01/21 04:21:13;;;;;;;;;;;-3275.70;93.20;;;;;;5076213;28;19950;-88
2022/01/21 04:23:38;;;;;;;;;;;-3275.70;93.00;;;;;;5074602;28;20425;-88
2022/01/21 04:26:04;;;;;;;;;;;-3275.60;92.70;;;;;;5075904;28;19995;-88
2022/01/21 04:28:29;;;;;;;;;;;-3275.60;92.80;;;;;;5075704;28;19916;-88
2022/01/21 04:30:56;;;;;;;;;;;-3275.60;92.50;;;;;;5075765;28;20008;-88
2022/01/21 04:33:21;;;;;;;;;;;-3275.50;92.50;;;;;;5075734;28;19956;-88
2022/01/21 04:35:47;;;;;;;;;;;-3275.60;92.70;;;;;;5075627;28;19959;-88
2022/01/21 04:38:15;;;;;;;;;;;-3275.70;92.60;;;;;;5075633;28;19956;-88
2022/01/21 04:40:49;;;;;;;;;;;-3275.90;92.40;;;;;;5075611;28;19958;-88
2022/01/21 04:48:43;;;;;;;;;;;-3275.70;91.20;;;;;;5075447;28;19955;-88
2022/01/21 04:53:36;;;;;;;;;;;-3275.60;90.90;;;;;;5075466;28;19935;-88
2022/01/21 04:56:02;;;;;;;;;;;-3275.50;90.80;;;;;;5075225;28;19912;-88
2022/01/21 04:58:28;;;;;;;;;;;-3275.40;91.30;;;;;;5075207;28;19934;-88
2022/01/21 05:00:53;;;;;;;;;;;-3275.30;91.50;;;;;;5075229;28;20003;-89
2022/01/21 05:03:19;;;;;;;;;;;-3275.30;91.70;;;;;;5075196;28;19915;-87
2022/01/21 05:05:44;;;;;;;;;;;-3275.30;92.10;;;;;;5074910;28;19916;-87
2022/01/21 05:08:21;;;;;;;;;;;-3275.50;92.70;;;;;;5075059;28;20316;-87
2022/01/21 05:10:46;;;;;;;;;;;-3275.60;92.80;;;;;;5075033;28;20381;-87
2022/01/21 05:13:15;;;;;;;;;;;-3275.60;92.70;;;;;;5074979;28;19912;-87
2022/01/21 05:18:09;;;;;;;;;;;-3275.50;92.20;;;;;;5075214;28;19919;-87
2022/01/21 05:20:34;;;;;;;;;;;-3275.50;92.10;;;;;;5074842;28;20011;-87
2022/01/21 05:23:00;;;;;;;;;;;-3275.40;91.90;;;;;;5075045;28;19995;-87
2022/01/21 05:25:25;;;;;;;;;;;-3275.30;91.80;;;;;;5074751;28;19909;-87
2022/01/21 05:27:51;;;;;;;;;;;-3275.20;91.70;;;;;;5074582;28;20360;-87
2022/01/21 05:30:17;;;;;;;;;;;-3275.30;91.80;;;;;;5074673;28;20306;-87
2022/01/21 05:32:43;;;;;;;;;;;-3275.30;92.00;;;;;;5074572;28;20285;-87
2022/01/21 05:35:09;;;;;;;;;;;-3275.40;92.00;;;;;;5074459;28;20012;-87
2022/01/21 05:37:35;;;;;;;;;;;-3275.40;92.10;;;;;;5074499;28;19912;-88
2022/01/21 05:40:01;;;;;;;;;;;-3275.50;92.00;;;;;;5074421;28;19908;-87
2022/01/21 05:42:26;;;;;;;;;;;-3275.40;91.80;;;;;;5074381;28;19909;-87
2022/01/21 05:47:20;;;;;;;;;;;-3275.40;91.30;;;;;;5074290;28;19913;-87
2022/01/21 05:49:46;;;;;;;;;;;-3275.30;91.20;;;;;;5074433;28;20008;-87
2022/01/21 05:52:19;;;;;;;;;;;-3275.10;91.30;;;;;;5074207;28;19915;-87
2022/01/21 05:54:46;;;;;;;;;;;-3275.10;91.10;;;;;;5074027;28;19963;-87
2022/01/21 05:57:14;;;;;;;;;;;-3275.10;91.70;;;;;;5074027;28;19919;-87
2022/01/21 05:59:40;;;;;;;;;;;-3275.10;91.40;;;;;;5072634;28;19912;-87
2022/01/21 06:02:06;;;;;;;;;;;-3275.00;91.60;;;;;;5071821;28;19916;-87
2022/01/21 06:04:36;;;;;;;;;;;-3275.00;91.60;;;;;;5073144;28;19946;-87
2022/01/21 06:07:02;;;;;;;;;;;-3275.00;92.10;;;;;;5075307;28;20365;-87
2022/01/21 06:09:28;;;;;;;;;;;-3275.10;92.30;;;;;;5072258;28;19926;-87
2022/01/21 06:11:53;;;;;;;;;;;-3275.20;92.20;;;;;;5072806;28;19913;-87
2022/01/21 06:14:19;;;;;;;;;;;-3275.30;92.00;;;;;;5071925;28;19919;-87
2022/01/21 06:16:45;;;;;;;;;;;-3275.20;91.50;;;;;;5072901;28;20011;-87
2022/01/21 06:19:10;;;;;;;;;;;-3275.10;91.20;;;;;;5075235;28;19919;-87
2022/01/21 06:21:36;;;;;;;;;;;-3275.00;91.10;;;;;;5080956;28;20366;-87
2022/01/21 06:24:02;;;;;;;;;;;-3275.00;91.00;;;;;;5071840;28;19916;-87
2022/01/21 06:26:27;;;;;;;;;;;-3275.00;91.00;;;;;;5072856;28;20285;-87
2022/01/21 06:28:53;;;;;;;;;;;-3275.10;91.30;;;;;;5075133;28;20352;-87
2022/01/21 06:31:18;;;;;;;;;;;-3275.00;91.20;;;;;;5069246;28;19958;-88
2022/01/21 06:33:44;;;;;;;;;;;-3275.00;91.20;;;;;;5068177;28;20007;-87
2022/01/21 06:36:09;;;;;;;;;;;-3275.10;91.30;;;;;;5070715;28;20420;-87
2022/01/21 06:38:35;;;;;;;;;;;-3275.20;91.60;;;;;;5070593;28;20390;-88
2022/01/21 06:41:01;;;;;;;;;;;-3275.50;91.80;;;;;;5069651;28;19920;-88
2022/01/21 06:43:27;;;;;;;;;;;-3275.60;91.80;;;;;;5066432;28;19999;-88
2022/01/21 06:45:52;;;;;;;;;;;-3275.80;92.00;;;;;;5070626;28;20267;-88
2022/01/21 06:48:18;;;;;;;;;;;-3275.90;92.00;;;;;;5062935;28;20668;-88
2022/01/21 06:50:43;;;;;;;;;;;-3275.80;91.30;;;;;;5065298;28;20432;-88
2022/01/21 06:53:09;;;;;;;;;;;-3275.70;91.20;;;;;;5065611;28;19991;-88
2022/01/21 06:55:35;;;;;;;;;;;-3275.70;91.00;;;;;;5075660;22;20509;-88
2022/01/21 06:58:01;;;;;;;;;;;-3275.50;90.90;;;;;;5065168;28;20170;-88
2022/01/21 07:00:26;;;;;;;;;;;-3275.60;91.20;;;;;;5068255;28;20043;-88
2022/01/21 07:02:52;;;;;;;;;;;-3275.60;91.50;;;;;;5066092;28;19912;-88
2022/01/21 07:05:19;;;;;;;;;;;-3275.60;91.80;;;;;;5067958;28;20442;-88
2022/01/21 07:07:44;;;;;;;;;;;-3275.70;91.70;;;;;;5068234;28;19912;-88
2022/01/21 07:10:12;;;;;;;;;;;-3275.80;91.70;;;;;;5054004;28;20290;-88
2022/01/21 07:12:38;;;;;;;;;;;-3275.80;91.80;;;;;;5050001;28;19936;-88
2022/01/21 07:15:04;;;;;;;;;;;-3275.90;91.90;;;;;;5050185;28;20362;-87
2022/01/21 07:17:30;;;;;;;;;;;-3275.90;91.80;;;;;;5051596;28;20366;-88
2022/01/21 07:19:56;;;;;;;;;;;-3275.90;91.50;;;;;;5051270;28;19987;-88
2022/01/21 07:22:21;;;;;;;;;;;-3276.00;91.60;;;;;;5049385;28;19912;-88
2022/01/21 07:24:47;;;;;;;;;;;-3276.10;91.60;;;;;;5048915;28;20291;-88
2022/01/21 07:27:12;;;;;;;;;;;-3276.20;91.50;;;;;;5049796;28;20378;-88
2022/01/21 07:29:38;;;;;;;;;;;-3276.30;91.70;;;;;;5051242;28;19933;-88
2022/01/21 07:32:03;;;;;;;;;;;-3276.40;91.80;;;;;;5054243;28;19920;-88
2022/01/21 07:34:29;;;;;;;;;;;-3276.60;91.80;;;;;;5051854;28;19931;-88
2022/01/21 07:36:56;;;;;;;;;;;-3276.70;91.60;;;;;;5051875;28;20225;-89
2022/01/21 07:39:22;;;;;;;;;;;0.00;91.30;;;;;;5051660;28;19963;-89
2022/01/21 07:41:49;;;;;;;;;;;0.10;90.80;;;;;;5051358;28;19913;-89
2022/01/21 07:44:14;;;;;;;;;;;0.10;90.60;;;;;;5056016;28;19920;-88
2022/01/21 07:46:40;;;;;;;;;;;0.10;90.20;;;;;;5058284;28;19925;-88
2022/01/21 07:49:06;;;;;;;;;;;0.00;90.20;;;;;;5056735;28;19913;-88
2022/01/21 07:51:32;;;;;;;;;;;0.00;90.80;;;;;;5056825;28;19913;-88
2022/01/21 07:53:58;;;;;;;;;;;0.00;91.10;;;;;;5055498;28;19959;-88
2022/01/21 07:56:23;;;;;;;;;;;0.00;91.10;;;;;;5054654;28;19920;-90
2022/01/21 07:58:49;;;;;;;;;;;0.00;91.20;;;;;;5054425;28;20445;-88
2022/01/21 08:01:15;;;;;;;;;;;0.10;91.20;;;;;;5052755;28;19913;-88
2022/01/21 08:03:41;;;;;;;;;;;0.10;91.40;;;;;;5053995;28;19924;-89
2022/01/21 08:06:06;;;;;;;;;;;0.20;91.40;;;;;;5053409;28;19913;-89
2022/01/21 08:08:32;;;;;;;;;;;0.30;91.50;;;;;;5051405;28;20520;-89
2022/01/21 08:10:57;;;;;;;;;;;0.40;91.60;;;;;;5052413;28;19964;-89
2022/01/21 08:13:23;;;;;;;;;;;0.50;91.70;;;;;;5052059;28;19912;-89
2022/01/21 08:15:48;;;;;;;;;;;0.50;91.70;;;;;;5050792;28;19925;-89
2022/01/21 08:18:15;;;;;;;;;;;0.60;91.80;;;;;;5052125;28;19913;-88
2022/01/21 08:20:42;;;;;;;;;;;0.80;92.00;;;;;;5050309;28;19917;-89
2022/01/21 08:23:08;;;;;;;;;;;1.00;92.30;;;;;;5049181;28;20378;-88
2022/01/21 08:25:33;;;;;;;;;;;1.30;92.40;;;;;;5050407;28;19913;-88
2022/01/21 08:27:59;;;;;;;;;;;1.50;92.20;;;;;;5051847;28;19913;-89
2022/01/21 08:30:25;;;;;;;;;;;1.80;91.60;;;;;;5055885;28;19912;-89
2022/01/21 08:32:50;;;;;;;;;;;1.90;89.90;;;;;;5052710;28;19920;-89
2022/01/21 08:35:16;;;;;;;;;;;1.90;89.90;;;;;;5049673;28;19913;-90
2022/01/21 08:37:41;;;;;;;;;;;2.00;89.90;;;;;;5052891;28;20007;-90
2022/01/21 08:40:08;;;;;;;;;;;2.00;90.10;;;;;;5050110;28;19913;-90
2022/01/21 08:42:33;;;;;;;;;;;2.10;89.90;;;;;;5051098;28;19917;-90
2022/01/21 08:44:59;;;;;;;;;;;2.20;89.50;;;;;;5053137;28;19913;-89
2022/01/21 08:47:24;;;;;;;;;;;2.20;90.10;;;;;;5051117;28;20379;-88
2022/01/21 08:49:51;;;;;;;;;;;2.20;90.00;;;;;;5052101;28;20481;-88
2022/01/21 08:52:22;;;;;;;;;;;2.40;89.90;;;;;;5052018;28;19912;-88
2022/01/21 08:54:48;;;;;;;;;;;2.50;90.20;;;;;;5052317;28;19932;-90
2022/01/21 08:57:15;;;;;;;;;;;2.50;89.40;;;;;;5052799;28;19917;-88
2022/01/21 08:59:40;;;;;;;;;;;2.60;88.80;;;;;;5052992;28;19940;-88
2022/01/21 09:02:06;;;;;;;;;;;2.80;89.30;;;;;;5051619;28;19959;-88
2022/01/21 09:04:32;;;;;;;;;;;3.00;89.90;;;;;;5053392;28;20073;-87
2022/01/21 09:06:58;;;;;;;;;;;3.20;90.10;;;;;;5053205;28;19928;-88
2022/01/21 09:09:25;;;;;;;;;;;3.40;89.80;;;;;;5053971;28;19913;-88
2022/01/21 09:11:52;;;;;;;;;;;3.50;89.40;;;;;;5052955;28;20051;-89
2022/01/21 09:14:17;;;;;;;;;;;3.70;89.10;;;;;;5051822;28;19921;-88
2022/01/21 09:16:43;;;;;;;;;;;3.90;88.80;;;;;;5051212;28;19991;-88
2022/01/21 09:19:08;;;;;;;;;;;3.90;88.90;;;;;;5052468;28;19920;-88
2022/01/21 09:21:36;;;;;;;;;;;3.90;88.80;;;;;;5051928;28;19916;-88
2022/01/21 09:24:03;;;;;;;;;;;4.00;89.30;;;;;;5053931;28;19942;-87
2022/01/21 09:26:28;;;;;;;;;;;4.00;89.10;;;;;;5054742;28;20001;-88
2022/01/21 09:28:54;;;;;;;;;;;4.10;89.00;;;;;;5058056;28;20343;-89
2022/01/21 09:31:20;;;;;;;;;;;4.20;87.90;;;;;;5055194;28;20309;-89
2022/01/21 09:33:46;;;;;;;;;;;4.30;87.00;;;;;;5051272;28;19917;-88
2022/01/21 09:36:12;;;;;;;;;;;4.40;86.60;;;;;;5050303;28;20393;-88
2022/01/21 09:38:38;;;;;;;;;;;4.50;86.20;;;;;;5050128;28;21008;-87
2022/01/21 09:41:04;;;;;;;;;;;4.50;86.40;;;;;;5051027;28;19967;-87
2022/01/21 09:43:30;;;;;;;;;;;4.70;86.70;;;;;;5050395;28;19923;-88
2022/01/21 09:45:56;;;;;;;;;;;4.90;86.50;;;;;;5051830;28;19917;-88
2022/01/21 09:48:25;;;;;;;;;;;5.10;86.00;;;;;;5051342;28;19921;-88
2022/01/21 09:50:51;;;;;;;;;;;5.40;85.00;;;;;;5051389;28;20003;-88
2022/01/21 09:53:18;;;;;;;;;;;5.50;84.20;;;;;;5051760;28;19998;-87
2022/01/21 09:55:44;;;;;;;;;;;5.60;84.40;;;;;;5051470;28;20375;-87
2022/01/21 09:58:10;;;;;;;;;;;5.60;83.90;;;;;;5051868;28;19920;-88
2022/01/21 10:00:35;;;;;;;;;;;5.50;84.30;;;;;;5053538;28;19978;-88
2022/01/21 10:03:03;;;;;;;;;;;5.60;84.30;;;;;;5052181;28;20374;-87
2022/01/21 10:05:29;;;;;;;;;;;5.90;83.90;;;;;;5054120;28;19983;-88
2022/01/21 10:07:55;;;;;;;;;;;5.90;82.30;;;;;;5053104;28;19912;-87
2022/01/21 10:10:21;;;;;;;;;;;5.90;82.10;;;;;;5051588;28;20004;-87
2022/01/21 10:12:48;;;;;;;;;;;6.00;82.60;;;;;;5051524;28;20460;-87
2022/01/21 10:15:15;;;;;;;;;;;6.00;82.20;;;;;;5055096;28;19913;-87
2022/01/21 10:17:57;;;;;;;;;;;6.00;81.60;;;;;;5053216;28;19917;-87
2022/01/21 10:20:22;;;;;;;;;;;6.10;81.20;;;;;;5051541;28;19912;-87
2022/01/21 10:22:57;;;;;;;;;;;6.20;81.20;;;;;;5053226;28;20505;-87
2022/01/21 10:25:23;;;;;;;;;;;6.40;81.10;;;;;;5052514;28;19917;-87
2022/01/21 10:27:48;;;;;;;;;;;6.50;75.60;;;;;;5050284;28;20011;-87
2022/01/21 10:30:22;;;;;;;;;;;6.70;71.00;;;;;;5051828;28;19919;-87
2022/01/21 10:32:47;;;;;;;;;;;6.90;69.30;;;;;;5048924;28;19920;-87
2022/01/21 10:35:24;;;;;;;;;;;7.00;71.40;;;;;;5050614;28;19921;-88
2022/01/21 10:37:49;;;;;;;;;;;7.10;70.80;;;;;;5050572;28;19927;-88
2022/01/21 10:40:16;;;;;;;;;;;7.20;70.00;;;;;;5050619;28;19916;-88
2022/01/21 10:42:42;;;;;;;;;;;7.40;68.70;;;;;;5050835;28;19995;-87
2022/01/21 10:45:09;;;;;;;;;;;7.50;65.80;;;;;;5049094;28;20058;-88
2022/01/21 10:47:36;;;;;;;;;;;7.70;65.60;;;;;;5050879;28;19913;-87
2022/01/21 10:50:13;;;;;;;;;;;7.80;64.10;;;;;;5050015;28;20008;-87
2022/01/21 10:52:49;;;;;;;;;;;7.90;64.20;;;;;;5050769;28;20425;-87
2022/01/21 10:55:34;;;;;;;;;;;7.90;62.80;;;;;;5051322;28;20030;-88
2022/01/21 10:58:06;;;;;;;;;;;8.00;61.70;;;;;;5047621;28;19932;-87
2022/01/21 11:00:31;;;;;;;;;;;8.00;60.50;;;;;;5050472;28;20260;-87
2022/01/21 11:03:07;;;;;;;;;;;8.00;61.40;;;;;;5048000;28;19927;-87
2022/01/21 11:05:38;;;;;;;;;;;8.20;63.20;;;;;;5050347;28;19913;-88
2022/01/21 11:08:07;;;;;;;;;;;8.20;60.20;;;;;;5049982;28;19913;-88
2022/01/21 11:10:36;;;;;;;;;;;8.40;61.00;;;;;;5050419;28;20383;-87
2022/01/21 11:13:03;;;;;;;;;;;8.50;58.50;;;;;;5050981;28;19913;-88
2022/01/21 11:15:41;;;;;;;;;;;8.70;59.00;;;;;;5052500;28;19920;-88
2022/01/21 11:18:09;;;;;;;;;;;8.90;58.50;;;;;;5052467;28;19912;-88
2022/01/21 11:20:38;;;;;;;;;;;9.10;59.60;;;;;;5052600;28;20359;-88
2022/01/21 11:23:03;;;;;;;;;;;9.30;58.70;;;;;;5052881;28;19909;-88
2022/01/21 11:25:41;;;;;;;;;;;9.40;56.00;;;;;;5052652;28;19920;-88
2022/01/21 11:28:08;;;;;;;;;;;9.40;56.40;;;;;;5052755;28;19958;-88
2022/01/21 11:30:33;;;;;;;;;;;9.50;56.60;;;;;;5052351;28;19951;-88
2022/01/21 11:32:59;;;;;;;;;;;9.70;55.10;;;;;;5052569;28;19913;-87
2022/01/21 11:35:26;;;;;;;;;;;9.90;54.90;;;;;;5051339;28;20341;-88
2022/01/21 11:37:51;;;;;;;;;;;9.90;53.90;;;;;;5052772;28;19915;-87
2022/01/21 11:40:17;;;;;;;;;;;9.90;55.00;;;;;;5052212;28;19913;-87
2022/01/21 11:42:43;;;;;;;;;;;10.10;54.10;;;;;;5052314;28;19944;-88
2022/01/21 11:45:31;;;;;;;;;;;10.40;53.30;;;;;;5052633;28;19916;-88
2022/01/21 11:50:49;;;;;;;;;;;10.90;51.40;;;;;;5021532;28;19955;-88
2022/01/21 11:53:15;;;;;;;;;;;11.40;50.80;;;;;;5052423;28;19909;-88
2022/01/21 11:55:45;;;;;;;;;;;11.60;49.80;;;;;;5051588;28;19967;-88
2022/01/21 11:58:22;;;;;;;;;;;11.90;48.40;;;;;;5052215;28;19924;-88
2022/01/21 12:00:48;;;;;;;;;;;12.30;48.30;;;;;;5051228;28;19909;-88
2022/01/21 12:03:22;;;;;;;;;;;12.40;45.40;;;;;;5052162;28;19928;-88
2022/01/21 12:05:48;;;;;;;;;;;12.60;45.50;;;;;;5052477;28;19909;-88
2022/01/21 12:08:14;;;;;;;;;;;13.10;46.60;;;;;;5052054;28;20011;-88
2022/01/21 12:10:43;;;;;;;;;;;13.80;44.70;;;;;;5052425;28;19999;-88
2022/01/21 12:13:15;;;;;;;;;;;14.10;43.20;;;;;;5052153;28;19936;-88
2022/01/21 12:20:58;;;;;;;;;;;14.60;39.20;;;;;;5056220;28;19913;-88
2022/01/21 12:23:25;;;;;;;;;;;15.20;39.00;;;;;;5054526;28;19932;-88
2022/01/21 12:26:09;;;;;;;;;;;16.00;38.30;;;;;;5054563;28;19913;-88
2022/01/21 12:28:45;;;;;;;;;;;16.80;36.90;;;;;;5055302;28;20214;-88
2022/01/21 12:31:12;;;;;;;;;;;17.50;35.40;;;;;;5051728;28;19917;-88
2022/01/21 12:36:16;;;;;;;;;;;17.80;33.60;;;;;;5053424;28;19923;-88
2022/01/21 12:41:16;;;;;;;;;;;17.20;34.80;;;;;;5052554;28;20366;-88
2022/01/21 12:43:48;;;;;;;;;;;16.90;34.30;;;;;;5052418;28;19974;-88
2022/01/21 12:46:26;;;;;;;;;;;16.90;35.50;;;;;;5053560;28;19913;-88
2022/01/21 12:48:53;;;;;;;;;;;17.00;34.10;;;;;;5055604;28;20354;-88
2022/01/21 12:56:40;;;;;;;;;;;16.90;33.70;;;;;;5051877;28;20014;-88
2022/01/21 12:59:06;;;;;;;;;;;17.00;34.80;;;;;;5048569;28;20367;-89
2022/01/21 13:01:36;;;;;;;;;;;17.60;33.20;;;;;;5051255;28;19913;-88
2022/01/21 13:04:05;;;;;;;;;;;17.60;30.50;;;;;;5052597;28;19913;-89
2022/01/21 13:06:30;;;;;;;;;;;17.70;30.90;;;;;;5051110;28;19920;-89
2022/01/21 13:09:02;;;;;;;;;;;18.30;28.30;;;;;;5054218;28;19921;-88
2022/01/21 13:11:29;;;;;;;;;;;18.80;26.20;;;;;;5053128;28;20252;-88
2022/01/21 13:14:23;;;;;;;;;;;18.50;27.50;;;;;;5050630;28;19950;-88
2022/01/21 13:16:54;;;;;;;;;;;17.50;29.40;;;;;;5050941;28;19968;-88
2022/01/21 13:19:19;;;;;;;;;;;16.50;30.40;;;;;;5051094;28;19924;-89
2022/01/21 13:21:46;;;;;;;;;;;16.10;30.80;;;;;;5053320;28;20329;-88
2022/01/21 13:24:25;;;;;;;;;;;16.20;31.10;;;;;;5048600;28;20006;-88
2022/01/21 13:26:52;;;;;;;;;;;16.70;29.40;;;;;;5050079;28;19920;-88
2022/01/21 13:29:26;;;;;;;;;;;17.10;29.50;;;;;;5048167;28;19924;-88
2022/01/21 13:31:53;;;;;;;;;;;17.30;28.20;;;;;;5049551;28;19936;-89
2022/01/21 13:34:18;;;;;;;;;;;17.80;28.50;;;;;;5050296;28;20010;-89
2022/01/21 13:36:47;;;;;;;;;;;18.00;28.90;;;;;;5050138;28;19964;-89
2022/01/21 13:39:15;;;;;;;;;;;18.30;29.00;;;;;;5052012;28;20282;-88
2022/01/21 13:41:47;;;;;;;;;;;18.30;28.60;;;;;;5051743;28;19921;-90
2022/01/21 13:44:13;;;;;;;;;;;18.30;28.20;;;;;;5051536;28;20298;-88
2022/01/21 13:46:39;;;;;;;;;;;17.80;28.60;;;;;;5052437;28;19917;-89
2022/01/21 13:49:05;;;;;;;;;;;16.80;28.60;;;;;;5049860;28;19920;-88
2022/01/21 13:51:31;;;;;;;;;;;17.00;29.20;;;;;;5048112;28;19912;-88
2022/01/21 13:54:04;;;;;;;;;;;16.80;30.40;;;;;;5050672;28;19997;-88
2022/01/21 13:56:29;;;;;;;;;;;17.10;30.00;;;;;;5051481;28;19927;-88
2022/01/21 13:58:55;;;;;;;;;;;17.30;29.20;;;;;;5052116;28;19998;-89
2022/01/21 14:01:23;;;;;;;;;;;17.70;27.80;;;;;;5049524;28;19913;-88
2022/01/21 14:03:48;;;;;;;;;;;17.80;27.70;;;;;;5052326;28;19932;-88
2022/01/21 14:06:19;;;;;;;;;;;17.70;27.50;;;;;;5048684;28;19913;-89
2022/01/21 14:08:46;;;;;;;;;;;17.60;27.10;;;;;;5053354;28;20374;-89
2022/01/21 14:11:13;;;;;;;;;;;17.10;28.30;;;;;;5047518;28;20416;-89
2022/01/21 14:13:48;;;;;;;;;;;17.10;28.50;;;;;;5052304;28;20374;-89
2022/01/21 14:16:23;;;;;;;;;;;16.90;29.50;;;;;;5051698;28;19943;-89
2022/01/21 14:18:50;;;;;;;;;;;17.10;28.80;;;;;;5055930;28;19913;-89
2022/01/21 14:21:17;;;;;;;;;;;17.30;27.90;;;;;;5054050;28;20023;-88
2022/01/21 14:23:43;;;;;;;;;;;17.30;27.90;;;;;;5052451;28;19952;-88
2022/01/21 14:26:10;;;;;;;;;;;16.80;28.50;;;;;;5052996;28;19913;-89
2022/01/21 14:28:51;;;;;;;;;;;16.40;28.90;;;;;;5050125;28;19982;-89
2022/01/21 14:31:35;;;;;;;;;;;16.60;29.40;;;;;;5050025;28;19928;-89
2022/01/21 14:34:02;;;;;;;;;;;17.10;29.40;;;;;;5046124;28;20379;-89
2022/01/21 14:36:28;;;;;;;;;;;17.00;30.20;;;;;;5049689;28;20351;-89
2022/01/21 14:39:07;;;;;;;;;;;17.30;29.50;;;;;;5048058;28;19913;-90
2022/01/21 14:41:37;;;;;;;;;;;17.70;29.60;;;;;;5045639;28;19912;-89
2022/01/21 14:44:03;;;;;;;;;;;18.00;28.30;;;;;;5055480;28;19912;-89
2022/01/21 14:46:28;;;;;;;;;;;18.10;28.50;;;;;;5058234;28;20016;-88
2022/01/21 14:49:02;;;;;;;;;;;17.60;28.50;;;;;;5056015;28;20393;-89
2022/01/21 14:51:32;;;;;;;;;;;17.10;29.40;;;;;;5057073;28;20306;-88
2022/01/21 14:54:27;;;;;;;;;;;16.90;29.10;;;;;;5068407;23;19933;-89
2022/01/21 14:56:59;;;;;;;;;;;17.10;30.20;;;;;;5061385;28;19920;-89
2022/01/21 14:59:27;;;;;;;;;;;17.90;28.20;;;;;;5066751;28;20309;-88
2022/01/21 15:02:00;;;;;;;;;;;17.90;28.50;;;;;;5070351;28;20373;-89
2022/01/21 15:04:26;;;;;;;;;;;17.20;30.10;;;;;;5070023;28;20480;-88
2022/01/21 15:07:12;;;;;;;;;;;16.50;30.30;;;;;;5068882;28;19928;-88
2022/01/21 15:09:42;;;;;;;;;;;15.80;30.00;;;;;;5056378;28;20003;-88
2022/01/21 15:14:23;;;;;;;;;;;15.30;30.50;;;;;;5050462;28;19912;-88
2022/01/21 15:14:58;;;;;;;;;;;15.00;31.90;;;;;;5050331;28;20256;-88
2022/01/21 15:17:24;;;;;;;;;;;15.30;32.30;;;;;;5050118;28;19956;-88
2022/01/21 15:19:51;;;;;;;;;;;15.00;32.40;;;;;;5050327;28;19920;-88
2022/01/21 15:22:20;;;;;;;;;;;14.60;33.50;;;;;;5046775;28;20268;-89